createdAt,value
2019-02-22T00:00:33.863Z,40.55
2019-02-22T00:03:01.189Z,39.10
2019-02-22T00:05:28.497Z,36.65
2019-02-22T00:07:55.795Z,33.02
2019-02-22T00:10:23.100Z,32.23
2019-02-22T00:12:50.435Z,35.78
2019-02-22T00:15:17.737Z,37.90
2019-02-22T00:17:45.051Z,43.78
2019-02-22T00:20:12.387Z,37.35
2019-02-22T00:22:39.666Z,47.93
2019-02-22T00:25:06.961Z,39.92
2019-02-22T00:27:34.277Z,41.40
2019-02-22T00:30:01.569Z,48.13
2019-02-22T00:32:28.883Z,39.18
2019-02-22T00:34:56.205Z,43.87
2019-02-22T00:37:23.493Z,44.45
2019-02-22T00:39:50.789Z,48.30
2019-02-22T00:42:18.101Z,42.65
2019-02-22T00:44:45.426Z,43.60
2019-02-22T00:47:12.742Z,45.52
2019-02-22T00:49:40.032Z,43.87
2019-02-22T00:52:07.347Z,45.15
2019-02-22T00:54:34.655Z,47.25
2019-02-22T00:57:01.958Z,42.40
2019-02-22T00:59:29.292Z,49.20
2019-02-22T01:01:56.604Z,45.08
2019-02-22T01:04:23.893Z,44.60
2019-02-22T01:06:51.219Z,46.92
2019-02-22T01:09:18.538Z,41.63
2019-02-22T01:11:45.847Z,49.42
2019-02-22T01:14:13.132Z,49.63
2019-02-22T01:16:40.447Z,44.88
2019-02-22T01:19:07.741Z,53.68
2019-02-22T01:21:35.061Z,50.40
2019-02-22T01:24:02.353Z,54.05
2019-02-22T01:26:29.644Z,48.65
2019-02-22T01:28:56.953Z,53.78
2019-02-22T01:31:24.248Z,51.88
2019-02-22T01:33:54.054Z,49.90
2019-02-22T01:36:20.497Z,52.95
2019-02-22T01:38:47.803Z,49.30
2019-02-22T01:41:15.093Z,56.68
2019-02-22T01:43:42.409Z,53.33
2019-02-22T01:46:09.715Z,60.78
2019-02-22T01:48:37.116Z,53.68
2019-02-22T01:51:04.408Z,51.70
2019-02-22T01:53:31.710Z,50.67
2019-02-22T01:55:59.034Z,53.25
2019-02-22T01:58:26.359Z,52.62
2019-02-22T02:00:53.674Z,51.10
2019-02-22T02:03:20.971Z,54.98
2019-02-22T02:05:48.293Z,56.80
2019-02-22T02:08:15.671Z,53.92
2019-02-22T02:10:53.665Z,49.27
2019-02-22T02:13:11.948Z,49.60
2019-02-22T02:15:39.235Z,47.60
2019-02-22T02:18:06.570Z,56.80
2019-02-22T02:20:33.867Z,56.60
2019-02-22T02:23:01.182Z,56.30
2019-02-22T02:25:28.473Z,50.73
2019-02-22T02:27:55.791Z,55.10
2019-02-22T02:30:23.094Z,51.35
2019-02-22T02:32:50.406Z,52.67
2019-02-22T02:35:17.711Z,61.00
2019-02-22T02:37:45.010Z,53.10
2019-02-22T02:40:12.320Z,53.98
2019-02-22T02:42:39.637Z,49.25
2019-02-22T02:45:06.926Z,60.67
2019-02-22T02:47:34.216Z,57.27
2019-02-22T02:50:01.538Z,61.10
2019-02-22T02:52:28.845Z,52.25
2019-02-22T02:54:56.165Z,57.17
2019-02-22T02:57:23.462Z,55.20
2019-02-22T02:59:50.753Z,58.08
2019-02-22T03:02:19.719Z,57.23
2019-02-22T03:04:47.032Z,51.02
2019-02-22T03:07:15.962Z,53.28
2019-02-22T03:09:43.273Z,57.38
2019-02-22T03:12:10.574Z,59.05
2019-02-22T03:14:37.883Z,48.75
2019-02-22T03:17:05.206Z,54.93
2019-02-22T03:19:32.538Z,51.95
2019-02-22T03:21:59.848Z,59.30
2019-02-22T03:24:27.132Z,50.58
2019-02-22T03:26:54.463Z,60.30
2019-02-22T03:29:21.756Z,54.25
2019-02-22T03:31:49.073Z,57.05
2019-02-22T03:34:16.367Z,69.15
2019-02-22T03:36:43.670Z,52.88
2019-02-22T03:39:10.998Z,55.65
2019-02-22T03:41:38.287Z,51.95
2019-02-22T03:44:05.662Z,58.50
2019-02-22T03:46:32.987Z,56.00
2019-02-22T03:49:00.305Z,55.83
2019-02-22T03:51:27.597Z,54.83
2019-02-22T03:53:57.429Z,50.83
2019-02-22T03:56:23.870Z,54.63
2019-02-22T03:58:51.163Z,54.03
2019-02-22T04:01:18.473Z,53.78
2019-02-22T04:03:45.772Z,53.92
2019-02-22T04:06:13.090Z,59.55
2019-02-22T04:08:40.434Z,58.15
2019-02-22T04:11:07.725Z,55.35
2019-02-22T04:13:35.109Z,62.43
2019-02-22T04:16:02.401Z,62.13
2019-02-22T04:18:29.722Z,55.67
2019-02-22T04:20:57.013Z,62.33
2019-02-22T04:23:24.315Z,54.90
2019-02-22T04:25:51.627Z,55.03
2019-02-22T04:28:18.933Z,57.30
2019-02-22T04:30:46.283Z,51.92
2019-02-22T04:33:13.586Z,48.42
2019-02-22T04:35:40.874Z,58.33
2019-02-22T04:38:08.190Z,50.90
2019-02-22T04:40:35.480Z,49.98
2019-02-22T04:43:02.774Z,59.10
2019-02-22T04:45:30.089Z,48.15
2019-02-22T04:47:57.414Z,52.43
2019-02-22T04:50:24.694Z,46.75
2019-02-22T04:52:52.017Z,49.27
2019-02-22T04:55:19.309Z,49.38
2019-02-22T04:57:46.624Z,47.73
2019-02-22T05:00:13.962Z,47.83
2019-02-22T05:02:41.238Z,57.00
2019-02-22T05:05:08.547Z,46.88
2019-02-22T05:07:35.866Z,44.27
2019-02-22T05:10:03.235Z,55.50
2019-02-22T05:12:30.533Z,50.05
2019-02-22T05:14:57.870Z,47.43
2019-02-22T05:17:25.157Z,49.35
2019-02-22T05:19:52.482Z,47.62
2019-02-22T05:22:19.796Z,47.40
2019-02-22T05:24:47.107Z,54.27
2019-02-22T05:27:14.439Z,49.90
2019-02-22T05:29:41.756Z,46.75
2019-02-22T05:32:09.082Z,39.50
2019-02-22T05:34:36.394Z,47.15
2019-02-22T05:37:03.695Z,45.67
2019-02-22T05:39:31.001Z,43.28
2019-02-22T05:41:58.336Z,41.02
2019-02-22T05:44:25.612Z,42.03
2019-02-22T05:47:00.471Z,36.95
2019-02-22T05:49:22.509Z,43.58
2019-02-22T05:51:49.890Z,50.17
2019-02-22T05:54:17.177Z,43.90
2019-02-22T05:56:44.489Z,44.27
2019-02-22T05:59:11.817Z,37.78
2019-02-22T06:01:39.122Z,35.88
2019-02-22T06:04:06.496Z,35.17
2019-02-22T06:06:33.722Z,38.67
2019-02-22T06:09:01.049Z,34.73
2019-02-22T06:11:28.349Z,38.48
2019-02-22T06:13:55.633Z,37.85
2019-02-22T06:16:22.960Z,35.35
2019-02-22T06:18:50.260Z,36.68
2019-02-22T06:21:17.563Z,32.95
2019-02-22T06:23:44.895Z,29.57
2019-02-22T06:26:12.180Z,35.68
2019-02-22T06:28:39.512Z,32.63
2019-02-22T06:31:06.819Z,31.37
2019-02-22T06:33:34.131Z,36.23
2019-02-22T06:36:01.464Z,33.65
2019-02-22T06:38:28.757Z,27.10
2019-02-22T06:40:56.084Z,32.30
2019-02-22T06:43:23.411Z,28.87
2019-02-22T06:45:50.706Z,33.00
2019-02-22T06:48:18.017Z,30.62
2019-02-22T06:50:45.320Z,29.05
2019-02-22T06:53:12.614Z,26.77
2019-02-22T06:55:39.929Z,30.68
2019-02-22T06:58:07.360Z,26.10
2019-02-22T07:00:34.621Z,28.17
2019-02-22T07:03:01.916Z,24.95
2019-02-22T07:05:29.235Z,30.15
2019-02-22T07:07:56.961Z,26.55
2019-02-22T07:10:24.355Z,27.95
2019-02-22T07:12:59.113Z,21.87
2019-02-22T07:15:26.447Z,24.77
2019-02-22T07:17:53.797Z,22.65
2019-02-22T07:20:21.081Z,21.87
2019-02-22T07:22:48.402Z,22.42
2019-02-22T07:25:15.697Z,27.25
2019-02-22T07:27:43.002Z,29.25
2019-02-22T07:30:10.883Z,30.88
2019-02-22T07:32:38.191Z,22.05
2019-02-22T07:35:06.076Z,26.60
2019-02-22T07:37:33.373Z,21.57
2019-02-22T07:40:00.707Z,23.27
2019-02-22T07:42:27.993Z,25.40
2019-02-22T07:44:55.285Z,21.45
2019-02-22T07:47:22.607Z,26.93
2019-02-22T07:49:49.925Z,22.32
2019-02-22T07:52:17.220Z,22.22
2019-02-22T07:54:44.528Z,29.65
2019-02-22T07:57:11.845Z,25.00
2019-02-22T07:59:39.166Z,27.22
2019-02-22T08:02:06.448Z,24.18
2019-02-22T08:04:33.743Z,24.05
2019-02-22T08:07:01.062Z,20.30
2019-02-22T08:09:28.353Z,24.20
2019-02-22T08:11:55.652Z,21.07
2019-02-22T08:14:22.971Z,21.68
2019-02-22T08:16:50.309Z,24.92
2019-02-22T08:19:17.615Z,25.08
2019-02-22T08:21:44.914Z,19.32
2019-02-22T08:24:12.237Z,18.55
2019-02-22T08:26:39.539Z,20.60
2019-02-22T08:29:06.840Z,21.70
2019-02-22T08:31:34.158Z,20.23
2019-02-22T08:34:01.466Z,18.60
2019-02-22T08:36:28.762Z,13.98
2019-02-22T08:38:56.089Z,13.75
2019-02-22T08:41:23.388Z,12.95
2019-02-22T08:43:50.679Z,14.43
2019-02-22T08:46:17.999Z,15.00
2019-02-22T08:48:45.317Z,11.80
2019-02-22T08:51:12.605Z,11.50
2019-02-22T08:53:39.926Z,12.05
2019-02-22T08:56:07.230Z,16.45
2019-02-22T08:58:34.519Z,10.90
2019-02-22T09:01:01.850Z,12.88
2019-02-22T09:03:29.140Z,9.83
2019-02-22T09:05:56.450Z,12.37
2019-02-22T09:08:23.742Z,12.65
2019-02-22T09:11:00.060Z,10.05
2019-02-22T09:13:19.989Z,12.88
2019-02-22T09:15:47.290Z,11.53
2019-02-22T09:18:14.615Z,11.48
2019-02-22T09:20:41.901Z,11.18
2019-02-22T09:23:09.234Z,12.13
2019-02-22T09:25:36.541Z,12.50
2019-02-22T09:28:03.831Z,11.57
2019-02-22T09:30:31.149Z,11.43
2019-02-22T09:32:58.446Z,11.75
2019-02-22T09:35:25.746Z,11.35
2019-02-22T09:37:53.049Z,11.57
2019-02-22T09:40:20.345Z,11.05
2019-02-22T09:42:47.654Z,10.78
2019-02-22T09:45:14.955Z,10.30
2019-02-22T09:47:42.257Z,8.78
2019-02-22T09:50:10.919Z,9.98
2019-02-22T09:52:38.238Z,9.65
2019-02-22T09:55:06.802Z,12.35
2019-02-22T09:57:34.110Z,12.40
2019-02-22T10:00:01.406Z,10.48
2019-02-22T10:02:28.717Z,10.03
2019-02-22T10:04:56.008Z,8.93
2019-02-22T10:07:23.362Z,8.50
2019-02-22T10:09:50.673Z,9.45
2019-02-22T10:12:17.960Z,10.40
2019-02-22T10:14:45.284Z,11.85
2019-02-22T10:17:12.568Z,15.10
2019-02-22T10:19:39.990Z,8.33
2019-02-22T10:22:07.287Z,11.70
2019-02-22T10:24:34.593Z,9.93
2019-02-22T10:27:01.894Z,9.68
2019-02-22T10:29:29.180Z,9.73
2019-02-22T10:31:56.500Z,9.50
2019-02-22T10:34:23.791Z,9.25
2019-02-22T10:36:51.103Z,10.35
2019-02-22T10:39:18.389Z,10.45
2019-02-22T10:41:45.673Z,9.35
2019-02-22T10:44:17.651Z,11.00
2019-02-22T10:46:41.917Z,9.03
2019-02-22T10:49:09.242Z,9.78
2019-02-22T10:51:36.527Z,8.03
2019-02-22T10:54:03.855Z,8.80
2019-02-22T10:56:31.147Z,7.83
2019-02-22T10:58:58.457Z,8.05
2019-02-22T11:01:25.770Z,8.68
2019-02-22T11:03:53.061Z,10.53
2019-02-22T11:06:20.394Z,6.78
2019-02-22T11:08:47.690Z,6.40
2019-02-22T11:11:14.999Z,7.35
2019-02-22T11:13:42.310Z,6.05
2019-02-22T11:16:09.610Z,5.92
2019-02-22T11:18:39.260Z,6.33
2019-02-22T11:21:05.814Z,9.38
2019-02-22T11:23:33.131Z,5.62
2019-02-22T11:26:00.422Z,4.30
2019-02-22T11:28:27.772Z,5.17
2019-02-22T11:30:55.057Z,5.33
2019-02-22T11:33:22.379Z,5.97
2019-02-22T11:35:49.662Z,8.73
2019-02-22T11:38:16.990Z,5.87
2019-02-22T11:40:44.325Z,5.70
2019-02-22T11:43:11.657Z,9.95
2019-02-22T11:45:38.946Z,6.97
2019-02-22T11:48:09.463Z,5.58
2019-02-22T11:50:35.217Z,5.95
2019-02-22T11:53:02.557Z,6.65
2019-02-22T11:55:29.863Z,6.58
2019-02-22T11:57:57.146Z,3.70
2019-02-22T12:00:24.841Z,4.35
2019-02-22T12:02:52.132Z,5.47
2019-02-22T12:05:19.423Z,4.30
2019-02-22T12:07:46.747Z,3.37
2019-02-22T12:10:14.043Z,5.35
2019-02-22T12:12:41.354Z,4.80
2019-02-22T12:15:14.397Z,4.45
2019-02-22T12:17:41.680Z,3.22
2019-02-22T12:20:09.484Z,2.42
2019-02-22T12:22:36.769Z,2.60
2019-02-22T12:25:05.352Z,8.43
2019-02-22T12:27:32.640Z,5.35
2019-02-22T12:29:59.964Z,3.10
2019-02-22T12:32:27.250Z,5.72
2019-02-22T12:34:54.543Z,12.65
2019-02-22T12:37:21.856Z,19.98
2019-02-22T12:39:49.146Z,13.88
2019-02-22T12:42:16.460Z,28.05
2019-02-22T12:44:43.756Z,29.98
2019-02-22T12:47:11.069Z,9.08
2019-02-22T12:49:40.168Z,15.85
2019-02-22T12:52:07.326Z,5.45
2019-02-22T12:54:34.623Z,4.75
2019-02-22T12:57:01.909Z,3.45
2019-02-22T12:59:29.210Z,3.37
2019-02-22T13:01:56.502Z,8.43
2019-02-22T13:04:23.833Z,12.82
2019-02-22T13:06:51.128Z,38.42
2019-02-22T13:09:18.441Z,22.45
2019-02-22T13:11:45.741Z,25.23
2019-02-22T13:14:13.865Z,12.47
2019-02-22T13:16:41.252Z,5.40
2019-02-22T13:19:08.538Z,4.45
2019-02-22T13:21:35.850Z,32.55
2019-02-22T13:24:03.142Z,3.37
2019-02-22T13:26:30.464Z,3.27
2019-02-22T13:28:57.746Z,4.45
2019-02-22T13:31:30.100Z,6.28
2019-02-22T13:33:54.014Z,7.10
2019-02-22T13:36:21.305Z,9.43
2019-02-22T13:38:48.664Z,6.67
2019-02-22T13:41:15.984Z,4.75
2019-02-22T13:43:43.274Z,3.90
2019-02-22T13:46:10.597Z,5.72
2019-02-22T13:48:37.885Z,12.80
2019-02-22T13:51:05.265Z,6.87
2019-02-22T13:53:32.494Z,2.62
2019-02-22T13:55:59.776Z,5.12
2019-02-22T13:58:27.089Z,3.45
2019-02-22T14:00:54.374Z,5.20
2019-02-22T14:03:21.694Z,3.40
2019-02-22T14:05:48.983Z,3.70
2019-02-22T14:08:16.304Z,4.37
2019-02-22T14:10:43.589Z,6.53
2019-02-22T14:13:10.902Z,6.60
2019-02-22T14:15:38.534Z,2.98
2019-02-22T14:18:05.899Z,4.05
2019-02-22T14:20:33.195Z,4.47
2019-02-22T14:23:00.468Z,4.10
2019-02-22T14:25:27.787Z,3.62
2019-02-22T14:27:55.073Z,3.72
2019-02-22T14:30:22.369Z,3.58
2019-02-22T14:32:49.722Z,5.72
2019-02-22T14:35:17.000Z,4.05
2019-02-22T14:37:44.332Z,4.25
2019-02-22T14:40:12.207Z,4.28
2019-02-22T14:42:39.493Z,3.60
2019-02-22T14:45:07.868Z,12.20
2019-02-22T14:47:35.172Z,5.80
2019-02-22T14:50:02.470Z,5.05
2019-02-22T14:52:29.790Z,25.77
2019-02-22T14:54:57.080Z,54.67
2019-02-22T14:57:24.368Z,53.65
2019-02-22T14:59:51.687Z,20.25
2019-02-22T15:02:18.968Z,22.15
2019-02-22T15:04:46.273Z,17.62
2019-02-22T15:07:13.616Z,29.30
2019-02-22T15:09:40.899Z,7.22
2019-02-22T15:12:08.189Z,13.88
2019-02-22T15:14:35.505Z,12.55
2019-02-22T15:17:16.287Z,28.65
2019-02-22T15:19:43.574Z,40.05
2019-02-22T15:22:10.875Z,22.17
2019-02-22T15:24:38.221Z,11.75
2019-02-22T15:27:05.486Z,7.00
2019-02-22T15:29:32.786Z,8.85
2019-02-22T15:32:00.096Z,7.45
2019-02-22T15:34:27.422Z,7.37
2019-02-22T15:36:54.698Z,6.17
2019-02-22T15:39:21.994Z,28.42
2019-02-22T15:41:49.304Z,19.62
2019-02-22T15:44:16.653Z,22.98
2019-02-22T15:46:43.944Z,27.25
2019-02-22T15:49:11.268Z,20.05
2019-02-22T15:51:38.530Z,34.10
2019-02-22T15:54:05.840Z,14.28
2019-02-22T15:56:33.125Z,11.90
2019-02-22T15:59:00.446Z,27.25
2019-02-22T16:01:27.738Z,19.75
2019-02-22T16:03:56.701Z,65.92
2019-02-22T16:06:24.004Z,11.22
2019-02-22T16:08:51.292Z,13.40
2019-02-22T16:11:18.605Z,5.97
2019-02-22T16:13:45.885Z,7.05
2019-02-22T16:16:22.989Z,10.03
2019-02-22T16:18:42.159Z,11.18
2019-02-22T16:21:09.541Z,4.33
2019-02-22T16:23:36.772Z,5.15
2019-02-22T16:26:04.157Z,4.90
2019-02-22T16:28:31.442Z,5.17
2019-02-22T16:30:58.721Z,6.42
2019-02-22T16:33:26.094Z,4.75
2019-02-22T16:35:53.381Z,8.05
2019-02-22T16:38:20.690Z,4.40
2019-02-22T16:40:47.986Z,7.55
2019-02-22T16:43:15.294Z,4.53
2019-02-22T16:45:42.577Z,4.62
2019-02-22T16:48:09.903Z,4.72
2019-02-22T16:50:37.213Z,5.42
2019-02-22T16:53:04.504Z,8.18
2019-02-22T16:55:31.800Z,6.03
2019-02-22T16:57:59.094Z,5.05
2019-02-22T17:00:26.471Z,7.58
2019-02-22T17:02:53.760Z,6.00
2019-02-22T17:05:21.060Z,11.15
2019-02-22T17:07:48.368Z,7.10
2019-02-22T17:10:15.730Z,9.13
2019-02-22T17:12:43.057Z,7.00
2019-02-22T17:15:10.906Z,9.53
2019-02-22T17:17:38.228Z,9.63
2019-02-22T17:20:14.732Z,7.62
2019-02-22T17:22:42.051Z,12.73
2019-02-22T17:25:13.907Z,8.90
2019-02-22T17:27:41.202Z,7.42
2019-02-22T17:30:12.812Z,7.92
2019-02-22T17:32:40.106Z,9.65
2019-02-22T17:35:07.397Z,9.70
2019-02-22T17:37:34.713Z,10.20
2019-02-22T17:40:01.997Z,11.40
2019-02-22T17:42:29.316Z,9.53
2019-02-22T17:44:56.610Z,11.20
2019-02-22T17:47:23.934Z,10.20
2019-02-22T17:49:51.225Z,8.83
2019-02-22T17:52:18.528Z,10.60
2019-02-22T17:54:45.848Z,9.43
2019-02-22T17:57:13.140Z,12.20
2019-02-22T17:59:40.438Z,11.80
2019-02-22T18:02:07.756Z,12.18
2019-02-22T18:04:35.047Z,12.75
2019-02-22T18:07:02.411Z,13.65
2019-02-22T18:09:29.666Z,13.22
2019-02-22T18:11:56.971Z,13.90
2019-02-22T18:14:24.293Z,14.35
2019-02-22T18:16:51.602Z,15.88
2019-02-22T18:19:18.925Z,13.95
2019-02-22T18:21:46.214Z,16.40
2019-02-22T18:24:13.534Z,16.85
2019-02-22T18:26:40.840Z,17.23
2019-02-22T18:29:08.142Z,17.42
2019-02-22T18:31:35.462Z,17.27
2019-02-22T18:34:02.821Z,16.07
2019-02-22T18:36:30.152Z,17.12
2019-02-22T18:38:57.453Z,18.62
2019-02-22T18:41:24.741Z,21.73
2019-02-22T18:43:52.065Z,18.73
2019-02-22T18:46:19.393Z,19.87
2019-02-22T18:48:47.569Z,17.60
2019-02-22T18:51:14.885Z,16.30
2019-02-22T18:53:42.201Z,19.55
2019-02-22T18:56:09.499Z,21.00
2019-02-22T18:58:36.805Z,23.07
2019-02-22T19:01:04.157Z,21.15
2019-02-22T19:03:31.457Z,22.67
2019-02-22T19:05:58.778Z,20.80
2019-02-22T19:08:32.426Z,21.80
2019-02-22T19:10:55.045Z,23.27
2019-02-22T19:13:22.348Z,24.00
2019-02-22T19:15:49.654Z,17.30
2019-02-22T19:18:16.977Z,20.95
2019-02-22T19:20:44.273Z,18.37
2019-02-22T19:23:11.586Z,22.00
2019-02-22T19:25:38.915Z,24.05
2019-02-22T19:28:06.206Z,24.18
2019-02-22T19:30:33.493Z,21.97
2019-02-22T19:33:00.807Z,24.23
2019-02-22T19:35:28.155Z,24.50
2019-02-22T19:37:55.415Z,23.35
2019-02-22T19:40:23.390Z,25.15
2019-02-22T19:42:50.710Z,24.15
2019-02-22T19:45:18.065Z,24.77
2019-02-22T19:47:45.353Z,21.93
2019-02-22T19:50:13.342Z,24.47
2019-02-22T19:52:40.625Z,24.87
2019-02-22T19:55:10.850Z,22.32
2019-02-22T19:57:38.271Z,26.42
2019-02-22T20:00:07.214Z,21.20
2019-02-22T20:02:34.552Z,18.23
2019-02-22T20:05:01.847Z,19.40
2019-02-22T20:07:29.141Z,19.50
2019-02-22T20:09:56.475Z,19.95
2019-02-22T20:12:23.775Z,16.87
2019-02-22T20:14:51.070Z,16.90
2019-02-22T20:17:18.385Z,17.05
2019-02-22T20:19:45.675Z,17.90
2019-02-22T20:22:12.974Z,15.93
2019-02-22T20:24:40.294Z,16.70
2019-02-22T20:27:07.593Z,16.40
2019-02-22T20:29:34.914Z,14.38
2019-02-22T20:32:02.206Z,14.23
2019-02-22T20:34:29.498Z,15.03
2019-02-22T20:36:56.837Z,16.37
2019-02-22T20:39:24.096Z,16.80
2019-02-22T20:41:51.418Z,18.60
2019-02-22T20:44:18.738Z,14.93
2019-02-22T20:46:46.033Z,15.50
2019-02-22T20:49:13.350Z,17.27
2019-02-22T20:51:40.659Z,14.58
2019-02-22T20:54:07.946Z,15.75
2019-02-22T20:56:44.181Z,16.60
2019-02-22T20:59:11.496Z,17.37
2019-02-22T21:01:38.822Z,16.27
2019-02-22T21:04:06.109Z,16.50
2019-02-22T21:06:33.426Z,17.12
2019-02-22T21:09:00.750Z,18.67
2019-02-22T21:11:28.067Z,16.37
2019-02-22T21:13:55.419Z,19.80
2019-02-22T21:16:22.714Z,20.35
2019-02-22T21:18:50.036Z,20.00
2019-02-22T21:21:17.341Z,21.27
2019-02-22T21:23:44.646Z,18.37
2019-02-22T21:26:11.949Z,21.65
2019-02-22T21:28:39.284Z,24.40
2019-02-22T21:31:06.602Z,21.40
2019-02-22T21:33:33.921Z,21.45
2019-02-22T21:36:01.226Z,22.22
2019-02-22T21:38:28.522Z,21.95
2019-02-22T21:40:55.840Z,23.95
2019-02-22T21:43:23.139Z,23.47
2019-02-22T21:45:50.450Z,23.18
2019-02-22T21:48:27.254Z,22.15
2019-02-22T21:50:46.700Z,23.62
2019-02-22T21:53:14.027Z,22.32
2019-02-22T21:55:41.332Z,22.13
2019-02-22T21:58:08.663Z,23.18
2019-02-22T22:00:35.971Z,23.67
2019-02-22T22:03:03.282Z,24.07
2019-02-22T22:05:30.582Z,24.32
2019-02-22T22:07:57.919Z,24.80
2019-02-22T22:10:25.228Z,24.25
2019-02-22T22:12:52.526Z,24.92
2019-02-22T22:15:19.842Z,24.75
2019-02-22T22:17:47.120Z,24.67
2019-02-22T22:20:14.445Z,25.82
2019-02-22T22:22:41.742Z,25.60
2019-02-22T22:25:15.598Z,25.02
2019-02-22T22:27:42.830Z,24.77
2019-02-22T22:30:11.214Z,26.27
2019-02-22T22:32:38.524Z,26.65
2019-02-22T22:35:06.801Z,26.35
2019-02-22T22:37:34.094Z,25.65
2019-02-22T22:40:01.404Z,25.92
2019-02-22T22:42:28.702Z,26.75
2019-02-22T22:44:56.023Z,27.13
2019-02-22T22:47:23.387Z,25.90
2019-02-22T22:49:50.696Z,25.68
2019-02-22T22:52:17.990Z,27.52
2019-02-22T22:54:45.323Z,26.68
2019-02-22T22:57:12.619Z,26.48
2019-02-22T22:59:39.909Z,29.20
2019-02-22T23:02:07.370Z,30.15
2019-02-22T23:04:34.666Z,27.95
2019-02-22T23:07:01.977Z,29.27
2019-02-22T23:09:29.359Z,26.33
2019-02-22T23:11:56.750Z,25.85
2019-02-22T23:14:24.058Z,26.55
2019-02-22T23:16:51.348Z,25.57
2019-02-22T23:19:18.678Z,27.95
2019-02-22T23:21:45.967Z,28.05
2019-02-22T23:24:13.282Z,28.23
2019-02-22T23:26:40.571Z,29.05
2019-02-22T23:29:07.871Z,28.45
2019-02-22T23:31:35.186Z,28.35
2019-02-22T23:34:02.486Z,27.10
2019-02-22T23:36:29.784Z,32.60
2019-02-22T23:38:57.102Z,27.82
2019-02-22T23:41:24.435Z,27.27
2019-02-22T23:43:51.725Z,28.50
2019-02-22T23:46:19.031Z,28.90
2019-02-22T23:48:46.371Z,28.38
2019-02-22T23:51:13.666Z,28.65
2019-02-22T23:53:40.959Z,30.80
2019-02-22T23:56:08.274Z,30.20
2019-02-22T23:58:35.563Z,29.63
